sensor_id;sensor_type;location;lat;lon;timestamp;temperature;humidity
19878;DHT22;10101;52.204;9.910;2023-11-18T00:00:12;4.00;99.90
19878;DHT22;10101;52.204;9.910;2023-11-18T00:02:42;4.00;99.90
19878;DHT22;10101;52.204;9.910;2023-11-18T00:05:09;4.10;99.90
19878;DHT22;10101;52.204;9.910;2023-11-18T00:07:36;4.10;99.90
19878;DHT22;10101;52.204;9.910;2023-11-18T00:10:03;4.10;99.90
19878;DHT22;10101;52.204;9.910;2023-11-18T00:12:30;4.20;99.90
19878;DHT22;10101;52.204;9.910;2023-11-18T00:14:58;4.40;99.90
19878;DHT22;10101;52.204;9.910;2023-11-18T00:17:24;4.60;99.90
19878;DHT22;10101;52.204;9.910;2023-11-18T00:19:51;4.80;99.90
19878;DHT22;10101;52.204;9.910;2023-11-18T00:22:19;4.80;99.90
19878;DHT22;10101;52.204;9.910;2023-11-18T00:24:45;4.80;99.90
19878;DHT22;10101;52.204;9.910;2023-11-18T00:27:12;4.70;99.90
19878;DHT22;10101;52.204;9.910;2023-11-18T00:29:40;4.70;99.90
19878;DHT22;10101;52.204;9.910;2023-11-18T00:32:10;4.60;99.90
19878;DHT22;10101;52.204;9.910;2023-11-18T00:34:37;4.60;99.90
19878;DHT22;10101;52.204;9.910;2023-11-18T00:37:04;4.60;99.90
19878;DHT22;10101;52.204;9.910;2023-11-18T00:39:30;4.70;99.90
19878;DHT22;10101;52.204;9.910;2023-11-18T00:41:57;4.70;99.90
19878;DHT22;10101;52.204;9.910;2023-11-18T00:44:24;4.70;99.90
19878;DHT22;10101;52.204;9.910;2023-11-18T00:46:51;4.70;99.90
19878;DHT22;10101;52.204;9.910;2023-11-18T00:49:19;4.80;99.90
19878;DHT22;10101;52.204;9.910;2023-11-18T00:51:45;4.80;99.90
19878;DHT22;10101;52.204;9.910;2023-11-18T00:54:12;4.80;99.90
19878;DHT22;10101;52.204;9.910;2023-11-18T00:56:39;4.80;99.90
19878;DHT22;10101;52.204;9.910;2023-11-18T00:59:06;4.90;99.90
19878;DHT22;10101;52.204;9.910;2023-11-18T01:01:33;5.00;99.90
19878;DHT22;10101;52.204;9.910;2023-11-18T01:04:00;5.00;99.90
19878;DHT22;10101;52.204;9.910;2023-11-18T01:06:28;5.00;99.90
19878;DHT22;10101;52.204;9.910;2023-11-18T01:08:54;5.00;99.90
19878;DHT22;10101;52.204;9.910;2023-11-18T01:11:21;5.10;99.90
19878;DHT22;10101;52.204;9.910;2023-11-18T01:13:48;5.10;99.90
19878;DHT22;10101;52.204;9.910;2023-11-18T01:16:15;5.10;99.90
19878;DHT22;10101;52.204;9.910;2023-11-18T01:18:42;5.10;99.90
19878;DHT22;10101;52.204;9.910;2023-11-18T01:21:09;5.00;99.90
19878;DHT22;10101;52.204;9.910;2023-11-18T01:23:38;5.10;99.90
19878;DHT22;10101;52.204;9.910;2023-11-18T01:26:08;5.10;99.90
19878;DHT22;10101;52.204;9.910;2023-11-18T01:28:38;5.10;99.90
19878;DHT22;10101;52.204;9.910;2023-11-18T01:31:07;5.00;99.90
19878;DHT22;10101;52.204;9.910;2023-11-18T01:33:35;5.00;99.90
19878;DHT22;10101;52.204;9.910;2023-11-18T01:36:06;5.00;99.90
19878;DHT22;10101;52.204;9.910;2023-11-18T01:38:33;5.00;99.90
19878;DHT22;10101;52.204;9.910;2023-11-18T01:41:02;5.00;99.90
19878;DHT22;10101;52.204;9.910;2023-11-18T01:43:30;5.00;99.90
19878;DHT22;10101;52.204;9.910;2023-11-18T01:45:58;5.00;99.90
19878;DHT22;10101;52.204;9.910;2023-11-18T01:48:27;4.90;99.90
19878;DHT22;10101;52.204;9.910;2023-11-18T01:50:56;4.90;99.90
19878;DHT22;10101;52.204;9.910;2023-11-18T01:53:23;4.90;99.90
19878;DHT22;10101;52.204;9.910;2023-11-18T01:55:50;4.90;99.90
19878;DHT22;10101;52.204;9.910;2023-11-18T01:58:19;4.90;99.90
19878;DHT22;10101;52.204;9.910;2023-11-18T02:00:48;5.00;99.90
19878;DHT22;10101;52.204;9.910;2023-11-18T02:03:16;5.00;99.90
19878;DHT22;10101;52.204;9.910;2023-11-18T02:05:43;5.00;99.90
19878;DHT22;10101;52.204;9.910;2023-11-18T02:08:10;5.00;99.90
19878;DHT22;10101;52.204;9.910;2023-11-18T02:10:45;5.00;99.90
19878;DHT22;10101;52.204;9.910;2023-11-18T02:13:22;5.00;99.90
19878;DHT22;10101;52.204;9.910;2023-11-18T02:15:53;5.10;99.90
19878;DHT22;10101;52.204;9.910;2023-11-18T02:18:24;5.10;99.90
19878;DHT22;10101;52.204;9.910;2023-11-18T02:20:53;5.10;99.90
19878;DHT22;10101;52.204;9.910;2023-11-18T02:23:21;5.10;99.90
19878;DHT22;10101;52.204;9.910;2023-11-18T02:25:50;5.10;99.90
19878;DHT22;10101;52.204;9.910;2023-11-18T02:28:17;5.10;99.90
19878;DHT22;10101;52.204;9.910;2023-11-18T02:30:48;5.10;99.90
19878;DHT22;10101;52.204;9.910;2023-11-18T02:33:19;5.10;99.90
19878;DHT22;10101;52.204;9.910;2023-11-18T02:35:51;5.20;99.90
19878;DHT22;10101;52.204;9.910;2023-11-18T02:38:22;5.10;99.90
19878;DHT22;10101;52.204;9.910;2023-11-18T02:40:56;5.10;99.90
19878;DHT22;10101;52.204;9.910;2023-11-18T02:43:25;5.20;99.90
19878;DHT22;10101;52.204;9.910;2023-11-18T02:45:54;5.20;99.90
19878;DHT22;10101;52.204;9.910;2023-11-18T02:48:22;5.10;99.90
19878;DHT22;10101;52.204;9.910;2023-11-18T02:50:49;5.20;99.90
19878;DHT22;10101;52.204;9.910;2023-11-18T02:53:16;5.20;99.90
19878;DHT22;10101;52.204;9.910;2023-11-18T02:55:42;5.20;99.90
19878;DHT22;10101;52.204;9.910;2023-11-18T02:58:10;5.20;99.90
19878;DHT22;10101;52.204;9.910;2023-11-18T03:00:37;5.20;99.90
19878;DHT22;10101;52.204;9.910;2023-11-18T03:03:04;5.10;99.90
19878;DHT22;10101;52.204;9.910;2023-11-18T03:05:31;5.00;99.90
19878;DHT22;10101;52.204;9.910;2023-11-18T03:07:58;5.10;99.90
19878;DHT22;10101;52.204;9.910;2023-11-18T03:10:25;5.00;99.90
19878;DHT22;10101;52.204;9.910;2023-11-18T03:12:53;5.10;99.90
19878;DHT22;10101;52.204;9.910;2023-11-18T03:15:22;5.00;99.90
19878;DHT22;10101;52.204;9.910;2023-11-18T03:17:49;5.00;99.90
19878;DHT22;10101;52.204;9.910;2023-11-18T03:20:17;5.00;99.90
19878;DHT22;10101;52.204;9.910;2023-11-18T03:22:44;5.00;99.90
19878;DHT22;10101;52.204;9.910;2023-11-18T03:25:11;5.10;99.90
19878;DHT22;10101;52.204;9.910;2023-11-18T03:27:38;5.10;99.90
19878;DHT22;10101;52.204;9.910;2023-11-18T03:30:06;5.10;99.90
19878;DHT22;10101;52.204;9.910;2023-11-18T03:32:35;5.10;99.90
19878;DHT22;10101;52.204;9.910;2023-11-18T03:35:01;5.00;99.90
19878;DHT22;10101;52.204;9.910;2023-11-18T03:37:30;5.00;99.90
19878;DHT22;10101;52.204;9.910;2023-11-18T03:39:56;5.00;99.90
19878;DHT22;10101;52.204;9.910;2023-11-18T03:42:23;5.00;99.90
19878;DHT22;10101;52.204;9.910;2023-11-18T03:44:50;5.00;99.90
19878;DHT22;10101;52.204;9.910;2023-11-18T03:47:16;5.00;99.90
19878;DHT22;10101;52.204;9.910;2023-11-18T03:49:45;5.10;99.90
19878;DHT22;10101;52.204;9.910;2023-11-18T03:52:11;5.20;99.90
19878;DHT22;10101;52.204;9.910;2023-11-18T03:54:38;5.00;99.90
19878;DHT22;10101;52.204;9.910;2023-11-18T03:57:05;5.00;99.90
19878;DHT22;10101;52.204;9.910;2023-11-18T03:59:32;5.10;99.90
19878;DHT22;10101;52.204;9.910;2023-11-18T04:01:58;5.00;99.90
19878;DHT22;10101;52.204;9.910;2023-11-18T04:04:25;5.00;99.90
19878;DHT22;10101;52.204;9.910;2023-11-18T04:06:55;5.10;99.90
19878;DHT22;10101;52.204;9.910;2023-11-18T04:09:22;5.10;99.90
19878;DHT22;10101;52.204;9.910;2023-11-18T04:11:49;5.10;99.90
19878;DHT22;10101;52.204;9.910;2023-11-18T04:14:15;5.20;99.90
19878;DHT22;10101;52.204;9.910;2023-11-18T04:16:44;5.20;99.90
19878;DHT22;10101;52.204;9.910;2023-11-18T04:19:11;5.20;99.90
19878;DHT22;10101;52.204;9.910;2023-11-18T04:21:38;5.30;99.90
19878;DHT22;10101;52.204;9.910;2023-11-18T04:24:07;5.20;99.90
19878;DHT22;10101;52.204;9.910;2023-11-18T04:26:35;5.20;99.90
19878;DHT22;10101;52.204;9.910;2023-11-18T04:29:02;5.20;99.90
19878;DHT22;10101;52.204;9.910;2023-11-18T04:31:29;5.20;99.90
19878;DHT22;10101;52.204;9.910;2023-11-18T04:33:56;5.20;99.90
19878;DHT22;10101;52.204;9.910;2023-11-18T04:36:23;5.10;99.90
19878;DHT22;10101;52.204;9.910;2023-11-18T04:38:52;5.10;99.90
19878;DHT22;10101;52.204;9.910;2023-11-18T04:41:20;5.10;99.90
19878;DHT22;10101;52.204;9.910;2023-11-18T04:43:48;5.00;99.90
19878;DHT22;10101;52.204;9.910;2023-11-18T04:46:15;4.90;99.90
19878;DHT22;10101;52.204;9.910;2023-11-18T04:48:42;4.80;99.90
19878;DHT22;10101;52.204;9.910;2023-11-18T04:51:09;4.90;99.90
19878;DHT22;10101;52.204;9.910;2023-11-18T04:53:37;4.90;99.90
19878;DHT22;10101;52.204;9.910;2023-11-18T04:56:05;4.80;99.90
19878;DHT22;10101;52.204;9.910;2023-11-18T04:58:37;4.70;99.90
19878;DHT22;10101;52.204;9.910;2023-11-18T05:01:04;4.70;99.90
19878;DHT22;10101;52.204;9.910;2023-11-18T05:03:31;4.70;99.90
19878;DHT22;10101;52.204;9.910;2023-11-18T05:05:58;4.70;99.90
19878;DHT22;10101;52.204;9.910;2023-11-18T05:08:25;4.60;99.90
19878;DHT22;10101;52.204;9.910;2023-11-18T05:10:52;4.70;99.90
19878;DHT22;10101;52.204;9.910;2023-11-18T05:13:19;4.60;99.90
19878;DHT22;10101;52.204;9.910;2023-11-18T05:15:48;4.60;99.90
19878;DHT22;10101;52.204;9.910;2023-11-18T05:18:15;4.60;99.90
19878;DHT22;10101;52.204;9.910;2023-11-18T05:20:42;4.60;99.90
19878;DHT22;10101;52.204;9.910;2023-11-18T05:23:09;4.50;99.90
19878;DHT22;10101;52.204;9.910;2023-11-18T05:25:37;4.50;99.90
19878;DHT22;10101;52.204;9.910;2023-11-18T05:28:05;4.50;99.90
19878;DHT22;10101;52.204;9.910;2023-11-18T05:30:34;4.30;99.90
19878;DHT22;10101;52.204;9.910;2023-11-18T05:33:03;4.40;99.90
19878;DHT22;10101;52.204;9.910;2023-11-18T05:35:31;4.50;99.90
19878;DHT22;10101;52.204;9.910;2023-11-18T05:37:58;4.50;99.90
19878;DHT22;10101;52.204;9.910;2023-11-18T05:40:25;4.40;99.90
19878;DHT22;10101;52.204;9.910;2023-11-18T05:42:52;4.20;99.90
19878;DHT22;10101;52.204;9.910;2023-11-18T05:45:20;4.20;99.90
19878;DHT22;10101;52.204;9.910;2023-11-18T05:47:57;4.10;99.90
19878;DHT22;10101;52.204;9.910;2023-11-18T05:50:25;4.10;99.90
19878;DHT22;10101;52.204;9.910;2023-11-18T05:52:53;4.10;99.90
19878;DHT22;10101;52.204;9.910;2023-11-18T05:55:20;4.00;99.90
19878;DHT22;10101;52.204;9.910;2023-11-18T05:57:47;3.90;99.90
19878;DHT22;10101;52.204;9.910;2023-11-18T06:00:14;3.80;99.90
19878;DHT22;10101;52.204;9.910;2023-11-18T06:02:44;3.80;99.90
19878;DHT22;10101;52.204;9.910;2023-11-18T06:05:12;3.80;99.90
19878;DHT22;10101;52.204;9.910;2023-11-18T06:07:41;3.70;99.90
19878;DHT22;10101;52.204;9.910;2023-11-18T06:10:08;3.60;99.90
19878;DHT22;10101;52.204;9.910;2023-11-18T06:12:35;3.60;99.90
19878;DHT22;10101;52.204;9.910;2023-11-18T06:15:06;3.40;99.90
19878;DHT22;10101;52.204;9.910;2023-11-18T06:17:34;3.40;99.90
19878;DHT22;10101;52.204;9.910;2023-11-18T06:20:01;3.40;99.90
19878;DHT22;10101;52.204;9.910;2023-11-18T06:22:31;3.40;99.90
19878;DHT22;10101;52.204;9.910;2023-11-18T06:24:59;3.30;99.90
19878;DHT22;10101;52.204;9.910;2023-11-18T06:27:26;3.20;99.90
19878;DHT22;10101;52.204;9.910;2023-11-18T06:29:53;3.20;99.90
19878;DHT22;10101;52.204;9.910;2023-11-18T06:32:20;3.10;99.90
19878;DHT22;10101;52.204;9.910;2023-11-18T06:34:47;3.10;99.90
19878;DHT22;10101;52.204;9.910;2023-11-18T06:37:15;3.10;99.90
19878;DHT22;10101;52.204;9.910;2023-11-18T06:39:42;3.00;99.90
19878;DHT22;10101;52.204;9.910;2023-11-18T06:42:14;3.10;99.90
19878;DHT22;10101;52.204;9.910;2023-11-18T06:44:41;3.00;99.90
19878;DHT22;10101;52.204;9.910;2023-11-18T06:47:07;3.00;99.90
19878;DHT22;10101;52.204;9.910;2023-11-18T06:49:34;3.10;99.90
19878;DHT22;10101;52.204;9.910;2023-11-18T06:52:02;3.00;99.90
19878;DHT22;10101;52.204;9.910;2023-11-18T06:54:29;3.00;99.90
19878;DHT22;10101;52.204;9.910;2023-11-18T06:56:58;2.90;99.90
19878;DHT22;10101;52.204;9.910;2023-11-18T06:59:26;2.90;99.90
19878;DHT22;10101;52.204;9.910;2023-11-18T07:01:53;2.80;99.90
19878;DHT22;10101;52.204;9.910;2023-11-18T07:04:20;2.70;99.90
19878;DHT22;10101;52.204;9.910;2023-11-18T07:06:46;2.70;99.90
19878;DHT22;10101;52.204;9.910;2023-11-18T07:09:13;2.80;99.90
19878;DHT22;10101;52.204;9.910;2023-11-18T07:11:42;2.80;99.90
19878;DHT22;10101;52.204;9.910;2023-11-18T07:14:09;2.80;99.90
19878;DHT22;10101;52.204;9.910;2023-11-18T07:16:40;2.90;99.90
19878;DHT22;10101;52.204;9.910;2023-11-18T07:19:07;3.00;99.90
19878;DHT22;10101;52.204;9.910;2023-11-18T07:21:35;3.00;99.90
19878;DHT22;10101;52.204;9.910;2023-11-18T07:24:02;3.00;99.90
19878;DHT22;10101;52.204;9.910;2023-11-18T07:26:29;3.00;99.90
19878;DHT22;10101;52.204;9.910;2023-11-18T07:28:55;3.10;99.90
19878;DHT22;10101;52.204;9.910;2023-11-18T07:31:22;3.20;99.90
19878;DHT22;10101;52.204;9.910;2023-11-18T07:33:51;3.30;99.90
19878;DHT22;10101;52.204;9.910;2023-11-18T07:36:18;3.40;99.90
19878;DHT22;10101;52.204;9.910;2023-11-18T07:38:45;3.40;99.90
19878;DHT22;10101;52.204;9.910;2023-11-18T07:41:12;3.60;99.90
19878;DHT22;10101;52.204;9.910;2023-11-18T07:43:49;3.70;99.90
19878;DHT22;10101;52.204;9.910;2023-11-18T07:46:16;3.80;99.90
19878;DHT22;10101;52.204;9.910;2023-11-18T07:48:43;3.90;99.90
19878;DHT22;10101;52.204;9.910;2023-11-18T07:51:11;4.00;99.90
19878;DHT22;10101;52.204;9.910;2023-11-18T07:53:40;4.10;99.90
19878;DHT22;10101;52.204;9.910;2023-11-18T07:56:07;4.20;99.90
19878;DHT22;10101;52.204;9.910;2023-11-18T07:58:36;4.30;99.90
19878;DHT22;10101;52.204;9.910;2023-11-18T08:01:04;4.30;99.90
19878;DHT22;10101;52.204;9.910;2023-11-18T08:03:32;4.40;99.90
19878;DHT22;10101;52.204;9.910;2023-11-18T08:05:59;4.40;99.90
19878;DHT22;10101;52.204;9.910;2023-11-18T08:08:28;4.40;99.90
19878;DHT22;10101;52.204;9.910;2023-11-18T08:10:55;4.30;99.90
19878;DHT22;10101;52.204;9.910;2023-11-18T08:13:22;4.40;99.90
19878;DHT22;10101;52.204;9.910;2023-11-18T08:15:49;4.40;99.90
19878;DHT22;10101;52.204;9.910;2023-11-18T08:18:16;4.40;99.90
19878;DHT22;10101;52.204;9.910;2023-11-18T08:20:43;4.50;99.90
19878;DHT22;10101;52.204;9.910;2023-11-18T08:23:10;4.50;99.90
19878;DHT22;10101;52.204;9.910;2023-11-18T08:25:38;4.60;99.90
19878;DHT22;10101;52.204;9.910;2023-11-18T08:28:07;4.60;99.90
19878;DHT22;10101;52.204;9.910;2023-11-18T08:30:34;4.70;99.90
19878;DHT22;10101;52.204;9.910;2023-11-18T08:33:01;4.80;99.90
19878;DHT22;10101;52.204;9.910;2023-11-18T08:35:29;4.80;99.90
19878;DHT22;10101;52.204;9.910;2023-11-18T08:37:57;4.90;99.90
19878;DHT22;10101;52.204;9.910;2023-11-18T08:40:24;4.90;99.90
19878;DHT22;10101;52.204;9.910;2023-11-18T08:42:53;5.10;99.90
19878;DHT22;10101;52.204;9.910;2023-11-18T08:45:22;5.00;99.90
19878;DHT22;10101;52.204;9.910;2023-11-18T08:47:53;5.10;99.90
19878;DHT22;10101;52.204;9.910;2023-11-18T08:50:20;5.10;99.90
19878;DHT22;10101;52.204;9.910;2023-11-18T08:52:50;5.20;99.90
19878;DHT22;10101;52.204;9.910;2023-11-18T08:55:20;5.20;99.90
19878;DHT22;10101;52.204;9.910;2023-11-18T08:57:48;5.30;99.90
19878;DHT22;10101;52.204;9.910;2023-11-18T09:00:25;5.30;99.90
19878;DHT22;10101;52.204;9.910;2023-11-18T09:03:10;5.30;99.90
19878;DHT22;10101;52.204;9.910;2023-11-18T09:05:43;5.30;99.90
19878;DHT22;10101;52.204;9.910;2023-11-18T09:08:23;5.40;99.90
19878;DHT22;10101;52.204;9.910;2023-11-18T09:10:49;5.40;99.90
19878;DHT22;10101;52.204;9.910;2023-11-18T09:13:19;5.60;99.90
19878;DHT22;10101;52.204;9.910;2023-11-18T09:15:48;5.70;99.90
19878;DHT22;10101;52.204;9.910;2023-11-18T09:18:14;5.60;99.90
19878;DHT22;10101;52.204;9.910;2023-11-18T09:20:43;5.70;99.90
19878;DHT22;10101;52.204;9.910;2023-11-18T09:23:10;5.60;99.90
19878;DHT22;10101;52.204;9.910;2023-11-18T09:25:38;5.70;99.90
19878;DHT22;10101;52.204;9.910;2023-11-18T09:28:06;5.80;99.90
19878;DHT22;10101;52.204;9.910;2023-11-18T09:30:36;5.70;99.90
19878;DHT22;10101;52.204;9.910;2023-11-18T09:33:06;5.90;99.90
19878;DHT22;10101;52.204;9.910;2023-11-18T09:35:39;6.00;99.90
19878;DHT22;10101;52.204;9.910;2023-11-18T09:38:06;6.10;99.90
19878;DHT22;10101;52.204;9.910;2023-11-18T09:40:34;6.20;99.90
19878;DHT22;10101;52.204;9.910;2023-11-18T09:43:03;6.10;99.90
19878;DHT22;10101;52.204;9.910;2023-11-18T09:45:34;6.20;99.90
19878;DHT22;10101;52.204;9.910;2023-11-18T09:48:02;6.30;99.90
19878;DHT22;10101;52.204;9.910;2023-11-18T09:50:35;6.30;99.90
19878;DHT22;10101;52.204;9.910;2023-11-18T09:53:08;6.30;99.90
19878;DHT22;10101;52.204;9.910;2023-11-18T09:55:42;6.40;99.90
19878;DHT22;10101;52.204;9.910;2023-11-18T09:58:15;6.30;99.90
19878;DHT22;10101;52.204;9.910;2023-11-18T10:00:42;6.20;99.90
19878;DHT22;10101;52.204;9.910;2023-11-18T10:03:09;6.10;99.90
19878;DHT22;10101;52.204;9.910;2023-11-18T10:05:42;6.10;99.90
19878;DHT22;10101;52.204;9.910;2023-11-18T10:08:09;6.00;1.00
19878;DHT22;10101;52.204;9.910;2023-11-18T10:10:36;6.10;1.00
19878;DHT22;10101;52.204;9.910;2023-11-18T10:13:03;6.10;1.00
19878;DHT22;10101;52.204;9.910;2023-11-18T10:15:34;6.00;1.00
19878;DHT22;10101;52.204;9.910;2023-11-18T10:18:03;6.10;1.00
19878;DHT22;10101;52.204;9.910;2023-11-18T10:20:52;6.00;99.90
19878;DHT22;10101;52.204;9.910;2023-11-18T10:23:20;6.20;72.90
19878;DHT22;10101;52.204;9.910;2023-11-18T10:25:48;6.20;99.90
19878;DHT22;10101;52.204;9.910;2023-11-18T10:28:22;6.20;1.00
19878;DHT22;10101;52.204;9.910;2023-11-18T10:30:50;6.30;99.90
19878;DHT22;10101;52.204;9.910;2023-11-18T10:33:17;6.30;1.00
19878;DHT22;10101;52.204;9.910;2023-11-18T10:35:50;6.40;99.90
19878;DHT22;10101;52.204;9.910;2023-11-18T10:38:22;6.50;99.90
19878;DHT22;10101;52.204;9.910;2023-11-18T10:40:53;6.60;1.00
19878;DHT22;10101;52.204;9.910;2023-11-18T10:43:21;6.80;99.90
19878;DHT22;10101;52.204;9.910;2023-11-18T10:45:54;6.80;71.10
19878;DHT22;10101;52.204;9.910;2023-11-18T10:48:30;6.90;1.00
19878;DHT22;10101;52.204;9.910;2023-11-18T10:50:57;6.90;92.30
19878;DHT22;10101;52.204;9.910;2023-11-18T10:53:26;7.00;1.00
19878;DHT22;10101;52.204;9.910;2023-11-18T10:55:53;6.90;88.40
19878;DHT22;10101;52.204;9.910;2023-11-18T10:58:22;7.10;1.00
19878;DHT22;10101;52.204;9.910;2023-11-18T11:00:51;7.10;99.90
19878;DHT22;10101;52.204;9.910;2023-11-18T11:03:21;7.20;99.90
19878;DHT22;10101;52.204;9.910;2023-11-18T11:05:49;7.10;1.00
19878;DHT22;10101;52.204;9.910;2023-11-18T11:08:17;7.10;99.90
19878;DHT22;10101;52.204;9.910;2023-11-18T11:10:45;7.00;83.30
19878;DHT22;10101;52.204;9.910;2023-11-18T11:13:14;7.00;1.00
19878;DHT22;10101;52.204;9.910;2023-11-18T11:15:43;7.00;1.00
19878;DHT22;10101;52.204;9.910;2023-11-18T11:18:12;7.10;99.90
19878;DHT22;10101;52.204;9.910;2023-11-18T11:20:46;7.10;38.80
19878;DHT22;10101;52.204;9.910;2023-11-18T11:23:18;7.00;1.00
19878;DHT22;10101;52.204;9.910;2023-11-18T11:25:58;7.10;99.90
19878;DHT22;10101;52.204;9.910;2023-11-18T11:28:37;7.10;99.90
19878;DHT22;10101;52.204;9.910;2023-11-18T11:31:12;7.20;41.40
19878;DHT22;10101;52.204;9.910;2023-11-18T11:33:46;7.20;1.00
19878;DHT22;10101;52.204;9.910;2023-11-18T11:36:21;7.00;1.00
19878;DHT22;10101;52.204;9.910;2023-11-18T11:38:50;7.00;99.90
19878;DHT22;10101;52.204;9.910;2023-11-18T11:41:23;7.00;99.90
19878;DHT22;10101;52.204;9.910;2023-11-18T11:43:53;6.90;99.90
19878;DHT22;10101;52.204;9.910;2023-11-18T11:46:25;6.90;46.60
19878;DHT22;10101;52.204;9.910;2023-11-18T11:49:00;7.00;1.00
19878;DHT22;10101;52.204;9.910;2023-11-18T11:51:39;7.00;1.00
19878;DHT22;10101;52.204;9.910;2023-11-18T11:54:12;7.00;1.00
19878;DHT22;10101;52.204;9.910;2023-11-18T11:56:43;6.90;1.00
19878;DHT22;10101;52.204;9.910;2023-11-18T11:59:12;7.20;1.00
19878;DHT22;10101;52.204;9.910;2023-11-18T12:01:40;7.10;1.00
19878;DHT22;10101;52.204;9.910;2023-11-18T12:04:12;7.00;1.00
19878;DHT22;10101;52.204;9.910;2023-11-18T12:06:46;7.00;1.00
19878;DHT22;10101;52.204;9.910;2023-11-18T12:09:18;7.10;99.90
19878;DHT22;10101;52.204;9.910;2023-11-18T12:11:47;6.90;99.90
19878;DHT22;10101;52.204;9.910;2023-11-18T12:14:16;7.00;99.90
19878;DHT22;10101;52.204;9.910;2023-11-18T12:17:04;7.10;1.00
19878;DHT22;10101;52.204;9.910;2023-11-18T12:19:35;7.10;99.90
19878;DHT22;10101;52.204;9.910;2023-11-18T12:22:10;7.00;99.90
19878;DHT22;10101;52.204;9.910;2023-11-18T12:24:44;7.00;99.90
19878;DHT22;10101;52.204;9.910;2023-11-18T12:27:13;6.90;99.90
19878;DHT22;10101;52.204;9.910;2023-11-18T12:29:43;6.90;99.90
19878;DHT22;10101;52.204;9.910;2023-11-18T12:32:10;7.00;99.90
19878;DHT22;10101;52.204;9.910;2023-11-18T12:34:52;7.00;94.10
19878;DHT22;10101;52.204;9.910;2023-11-18T12:37:51;7.00;99.90
19878;DHT22;10101;52.204;9.910;2023-11-18T12:40:51;7.10;87.10
19878;DHT22;10101;52.204;9.910;2023-11-18T12:46:49;7.20;99.90
19878;DHT22;10101;52.204;9.910;2023-11-18T12:49:21;7.30;99.90
19878;DHT22;10101;52.204;9.910;2023-11-18T12:51:50;7.20;99.90
19878;DHT22;10101;52.204;9.910;2023-11-18T12:54:18;7.20;19.70
19878;DHT22;10101;52.204;9.910;2023-11-18T12:56:45;7.20;99.90
19878;DHT22;10101;52.204;9.910;2023-11-18T12:59:16;7.30;99.90
19878;DHT22;10101;52.204;9.910;2023-11-18T13:01:44;7.20;99.90
19878;DHT22;10101;52.204;9.910;2023-11-18T13:04:17;7.40;99.90
19878;DHT22;10101;52.204;9.910;2023-11-18T13:06:45;7.20;99.90
19878;DHT22;10101;52.204;9.910;2023-11-18T13:09:14;7.20;1.00
19878;DHT22;10101;52.204;9.910;2023-11-18T13:11:52;7.10;99.90
19878;DHT22;10101;52.204;9.910;2023-11-18T13:14:22;7.10;99.90
19878;DHT22;10101;52.204;9.910;2023-11-18T13:16:51;7.00;99.90
19878;DHT22;10101;52.204;9.910;2023-11-18T13:19:24;7.10;99.90
19878;DHT22;10101;52.204;9.910;2023-11-18T13:21:51;7.10;99.90
19878;DHT22;10101;52.204;9.910;2023-11-18T13:24:22;7.20;99.90
19878;DHT22;10101;52.204;9.910;2023-11-18T13:26:49;7.10;29.00
19878;DHT22;10101;52.204;9.910;2023-11-18T13:29:16;7.00;99.90
19878;DHT22;10101;52.204;9.910;2023-11-18T13:31:45;6.90;99.90
19878;DHT22;10101;52.204;9.910;2023-11-18T13:34:12;7.00;99.90
19878;DHT22;10101;52.204;9.910;2023-11-18T13:36:40;6.90;99.90
19878;DHT22;10101;52.204;9.910;2023-11-18T13:39:09;6.90;99.90
19878;DHT22;10101;52.204;9.910;2023-11-18T13:41:42;7.00;99.90
19878;DHT22;10101;52.204;9.910;2023-11-18T13:44:10;7.10;99.90
19878;DHT22;10101;52.204;9.910;2023-11-18T13:46:38;7.10;99.90
19878;DHT22;10101;52.204;9.910;2023-11-18T13:49:07;7.10;1.00
19878;DHT22;10101;52.204;9.910;2023-11-18T13:51:34;7.00;1.00
19878;DHT22;10101;52.204;9.910;2023-11-18T13:54:02;7.00;1.00
19878;DHT22;10101;52.204;9.910;2023-11-18T13:56:30;6.90;1.00
19878;DHT22;10101;52.204;9.910;2023-11-18T13:58:57;6.80;1.00
19878;DHT22;10101;52.204;9.910;2023-11-18T14:01:25;6.80;1.00
19878;DHT22;10101;52.204;9.910;2023-11-18T14:03:53;6.80;1.00
19878;DHT22;10101;52.204;9.910;2023-11-18T14:06:22;6.80;1.00
19878;DHT22;10101;52.204;9.910;2023-11-18T14:08:49;6.70;1.00
19878;DHT22;10101;52.204;9.910;2023-11-18T14:11:16;6.70;1.00
19878;DHT22;10101;52.204;9.910;2023-11-18T14:13:43;6.70;1.00
19878;DHT22;10101;52.204;9.910;2023-11-18T14:16:10;6.80;1.00
19878;DHT22;10101;52.204;9.910;2023-11-18T14:18:37;6.80;1.00
19878;DHT22;10101;52.204;9.910;2023-11-18T14:21:06;6.70;1.00
19878;DHT22;10101;52.204;9.910;2023-11-18T14:23:35;6.70;1.00
19878;DHT22;10101;52.204;9.910;2023-11-18T14:26:03;6.70;1.00
19878;DHT22;10101;52.204;9.910;2023-11-18T14:28:30;6.70;1.00
19878;DHT22;10101;52.204;9.910;2023-11-18T14:30:57;6.70;1.00
19878;DHT22;10101;52.204;9.910;2023-11-18T14:33:23;6.60;1.00
19878;DHT22;10101;52.204;9.910;2023-11-18T14:35:50;6.70;1.00
19878;DHT22;10101;52.204;9.910;2023-11-18T14:38:18;6.70;1.00
19878;DHT22;10101;52.204;9.910;2023-11-18T14:40:47;6.60;49.90
19878;DHT22;10101;52.204;9.910;2023-11-18T14:43:14;6.60;28.30
19878;DHT22;10101;52.204;9.910;2023-11-18T14:45:41;6.70;99.90
19878;DHT22;10101;52.204;9.910;2023-11-18T14:48:08;6.70;99.90
19878;DHT22;10101;52.204;9.910;2023-11-18T14:50:35;6.70;99.90
19878;DHT22;10101;52.204;9.910;2023-11-18T14:53:04;6.60;99.90
19878;DHT22;10101;52.204;9.910;2023-11-18T14:55:31;6.70;99.90
19878;DHT22;10101;52.204;9.910;2023-11-18T14:58:00;6.60;99.90
19878;DHT22;10101;52.204;9.910;2023-11-18T15:00:30;6.60;99.90
19878;DHT22;10101;52.204;9.910;2023-11-18T15:02:58;6.60;1.00
19878;DHT22;10101;52.204;9.910;2023-11-18T15:05:26;6.60;1.00
19878;DHT22;10101;52.204;9.910;2023-11-18T15:07:54;6.70;1.00
19878;DHT22;10101;52.204;9.910;2023-11-18T15:10:23;6.60;1.00
19878;DHT22;10101;52.204;9.910;2023-11-18T15:12:51;6.60;1.00
19878;DHT22;10101;52.204;9.910;2023-11-18T15:15:20;6.60;1.00
19878;DHT22;10101;52.204;9.910;2023-11-18T15:17:47;6.50;1.00
19878;DHT22;10101;52.204;9.910;2023-11-18T15:20:15;6.50;1.00
19878;DHT22;10101;52.204;9.910;2023-11-18T15:22:44;6.60;1.00
19878;DHT22;10101;52.204;9.910;2023-11-18T15:25:12;6.60;1.00
19878;DHT22;10101;52.204;9.910;2023-11-18T15:27:40;6.60;1.00
19878;DHT22;10101;52.204;9.910;2023-11-18T15:30:08;6.60;1.00
19878;DHT22;10101;52.204;9.910;2023-11-18T15:32:38;6.50;56.00
19878;DHT22;10101;52.204;9.910;2023-11-18T15:35:06;6.60;99.90
19878;DHT22;10101;52.204;9.910;2023-11-18T15:37:39;6.50;99.90
19878;DHT22;10101;52.204;9.910;2023-11-18T15:40:10;6.50;1.00
19878;DHT22;10101;52.204;9.910;2023-11-18T15:42:39;6.50;1.00
19878;DHT22;10101;52.204;9.910;2023-11-18T15:45:08;6.50;1.00
19878;DHT22;10101;52.204;9.910;2023-11-18T15:47:38;6.50;1.00
19878;DHT22;10101;52.204;9.910;2023-11-18T15:50:05;6.50;99.90
19878;DHT22;10101;52.204;9.910;2023-11-18T15:52:33;6.40;1.00
19878;DHT22;10101;52.204;9.910;2023-11-18T15:55:01;6.40;1.00
19878;DHT22;10101;52.204;9.910;2023-11-18T15:57:36;6.30;1.00
19878;DHT22;10101;52.204;9.910;2023-11-18T16:00:04;6.30;1.00
19878;DHT22;10101;52.204;9.910;2023-11-18T16:02:32;6.20;1.00